Time;durP1;ratioP1;P1;durP2;ratioP2;P2;SDS_P1;SDS_P2;PMS_P1;PMS_P2;Temp;Humidity;BMP_temperature;BMP_pressure;BME280_temperature;BME280_humidity;BME280_pressure;Samples;Min_cycle;Max_cycle;Signal;HPM_P1;HPM_P2
2022/05/11 00:01:46;;;;;;;18.67;10.65;;;24.00;48.70;;;;;;5070063;28;20115;-78
2022/05/11 00:04:12;;;;;;;15.70;10.32;;;23.90;48.70;;;;;;5051669;28;20029;-78
2022/05/11 00:06:38;;;;;;;19.50;10.45;;;24.00;48.70;;;;;;5052280;28;20031;-78
2022/05/11 00:09:06;;;;;;;17.10;10.13;;;24.00;49.20;;;;;;5070279;28;20028;-78
2022/05/11 00:11:32;;;;;;;19.05;9.93;;;24.00;49.10;;;;;;5052746;28;20048;-78
2022/05/11 00:13:59;;;;;;;16.50;10.77;;;24.00;49.00;;;;;;5067893;28;20033;-78
2022/05/11 00:16:27;;;;;;;14.52;10.27;;;24.00;48.80;;;;;;5019223;28;20063;-78
2022/05/11 00:18:53;;;;;;;15.27;10.45;;;24.00;49.30;;;;;;5035256;28;20032;-78
2022/05/11 00:21:19;;;;;;;17.98;10.75;;;24.00;49.00;;;;;;5070330;28;20021;-77
2022/05/11 00:23:45;;;;;;;16.13;9.85;;;24.00;49.10;;;;;;5051261;28;20074;-78
2022/05/11 00:26:11;;;;;;;16.35;10.27;;;23.90;49.70;;;;;;5035993;28;20028;-77
2022/05/11 00:28:37;;;;;;;13.85;9.45;;;23.90;49.40;;;;;;5070029;28;20090;-77
2022/05/11 00:31:03;;;;;;;16.20;9.63;;;24.00;49.60;;;;;;5052438;28;20107;-77
2022/05/11 00:33:29;;;;;;;16.35;9.02;;;23.90;49.20;;;;;;5051225;28;20554;-77
2022/05/11 00:35:54;;;;;;;14.60;9.02;;;23.90;50.00;;;;;;5069461;28;20043;-77
2022/05/11 00:38:25;;;;;;;15.60;8.85;;;23.90;49.60;;;;;;5051750;28;20532;-77
2022/05/11 00:40:57;;;;;;;14.32;8.98;;;23.90;49.30;;;;;;5051667;28;20027;-77
2022/05/11 00:43:31;;;;;;;17.52;9.90;;;23.90;49.30;;;;;;5034626;28;20048;-77
2022/05/11 00:46:29;;;;;;;15.25;9.95;;;24.00;49.60;;;;;;5069374;28;20086;-77
2022/05/11 00:51:48;;;;;;;16.77;9.52;;;24.00;49.70;;;;;;5051149;28;20555;-78
2022/05/11 00:54:16;;;;;;;15.15;9.32;;;24.00;50.00;;;;;;5067969;28;20032;-78
2022/05/11 00:56:49;;;;;;;12.00;8.48;;;24.00;49.80;;;;;;5051222;28;20055;-78
2022/05/11 00:59:21;;;;;;;15.60;10.05;;;24.00;49.80;;;;;;5071267;28;20078;-78
2022/05/11 01:01:47;;;;;;;14.48;9.63;;;23.90;49.60;;;;;;5053381;28;20520;-78
2022/05/11 01:04:19;;;;;;;13.88;9.05;;;24.00;49.60;;;;;;5069948;28;20358;-78
2022/05/11 01:06:45;;;;;;;13.82;9.27;;;24.00;50.10;;;;;;5037501;28;20408;-78
2022/05/11 01:09:12;;;;;;;12.63;8.35;;;24.00;49.80;;;;;;5071536;28;20029;-78
2022/05/11 01:11:41;;;;;;;16.08;9.13;;;23.90;49.70;;;;;;5070921;28;20393;-77
2022/05/11 01:14:12;;;;;;;13.27;8.63;;;23.90;49.70;;;;;;5052246;28;20024;-78
2022/05/11 01:16:39;;;;;;;12.82;8.50;;;23.90;49.60;;;;;;5071368;28;20031;-78
2022/05/11 01:19:06;;;;;;;16.77;9.43;;;23.90;50.40;;;;;;5070830;28;20021;-78
2022/05/11 01:21:50;;;;;;;14.25;8.95;;;24.00;49.80;;;;;;5070895;28;20024;-78
2022/05/11 01:24:36;;;;;;;13.45;8.48;;;24.00;49.90;;;;;;5034732;28;20173;-77
2022/05/11 01:27:44;;;;;;;12.68;8.63;;;23.90;50.10;;;;;;5036174;28;20613;-78
2022/05/11 01:30:12;;;;;;;14.25;8.68;;;24.00;50.10;;;;;;5071357;28;20032;-77
2022/05/11 01:32:40;;;;;;;13.02;8.75;;;23.90;50.00;;;;;;5052286;28;20044;-77
2022/05/11 01:35:27;;;;;;;15.27;8.68;;;23.90;51.20;;;;;;5069494;28;20051;-77
2022/05/11 01:38:14;;;;;;;14.43;8.63;;;24.00;50.50;;;;;;5069413;28;20033;-77
2022/05/11 01:40:40;;;;;;;15.27;8.45;;;24.00;50.30;;;;;;5070611;28;20073;-77
2022/05/11 01:43:06;;;;;;;14.48;8.30;;;23.90;50.40;;;;;;5070083;28;20322;-77
2022/05/11 01:45:32;;;;;;;17.83;9.00;;;23.90;51.30;;;;;;5070086;28;20028;-77
2022/05/11 01:47:58;;;;;;;13.10;7.85;;;24.00;50.20;;;;;;5070676;28;20028;-77
2022/05/11 01:50:26;;;;;;;13.02;7.85;;;24.00;50.30;;;;;;5070625;28;20025;-77
2022/05/11 01:52:52;;;;;;;12.68;7.97;;;24.00;50.20;;;;;;5035820;28;20100;-77
2022/05/11 01:55:18;;;;;;;14.30;8.20;;;24.00;50.10;;;;;;5016606;28;20025;-77
2022/05/11 01:57:43;;;;;;;11.68;8.05;;;24.00;50.50;;;;;;5068461;28;20155;-77
2022/05/11 02:00:10;;;;;;;13.70;8.02;;;24.00;50.40;;;;;;5056393;28;20107;-77
2022/05/11 02:02:38;;;;;;;13.13;8.02;;;24.00;50.20;;;;;;5074404;28;20028;-77
2022/05/11 02:07:51;;;;;;;12.77;7.88;;;24.00;50.80;;;;;;5073635;28;20025;-77
2022/05/11 02:10:25;;;;;;;11.57;7.38;;;24.00;50.40;;;;;;5074120;28;20035;-77
2022/05/11 02:12:51;;;;;;;11.63;7.85;;;24.00;51.30;;;;;;5074034;28;20393;-77
2022/05/11 02:15:18;;;;;;;15.15;7.90;;;24.00;51.50;;;;;;5053805;28;20020;-76
2022/05/11 02:17:45;;;;;;;12.13;7.43;;;24.00;51.30;;;;;;5039702;28;20039;-77
2022/05/11 02:20:13;;;;;;;12.40;7.80;;;24.00;51.30;;;;;;5056420;28;20488;-77
2022/05/11 02:22:40;;;;;;;14.48;7.65;;;24.00;51.00;;;;;;5074220;28;20040;-77
2022/05/11 02:25:07;;;;;;;15.75;8.25;;;23.90;51.30;;;;;;5072692;28;20113;-77
2022/05/11 02:27:33;;;;;;;13.57;8.13;;;23.90;51.20;;;;;;5039730;28;20127;-77
2022/05/11 02:30:01;;;;;;;14.77;7.65;;;23.90;50.80;;;;;;5040119;28;20036;-77
2022/05/11 02:32:27;;;;;;;14.18;8.45;;;24.00;51.20;;;;;;5055701;28;20039;-77
2022/05/11 02:37:39;;;;;;;12.00;7.72;;;24.00;51.40;;;;;;5054846;28;20029;-77
2022/05/11 02:40:05;;;;;;;12.75;7.22;;;24.00;51.20;;;;;;5039050;28;20524;-77
2022/05/11 02:42:31;;;;;;;11.45;7.15;;;23.90;51.10;;;;;;5022760;28;20504;-77
2022/05/11 02:44:57;;;;;;;11.75;7.05;;;24.00;50.90;;;;;;5038786;28;20060;-77
2022/05/11 02:47:23;;;;;;;14.80;7.90;;;24.00;50.90;;;;;;5039046;28;20028;-77
2022/05/11 02:49:48;;;;;;;13.48;7.95;;;24.00;51.10;;;;;;5039686;28;20052;-78
2022/05/11 02:52:15;;;;;;;14.02;7.43;;;24.00;50.90;;;;;;5038857;28;20055;-78
2022/05/11 02:54:44;;;;;;;11.15;7.13;;;24.00;50.90;;;;;;5037570;28;20047;-78
2022/05/11 02:57:09;;;;;;;13.23;7.80;;;24.00;50.70;;;;;;5038759;28;20021;-77
2022/05/11 02:59:35;;;;;;;11.10;7.13;;;24.00;50.90;;;;;;5039277;28;20029;-78
2022/05/11 03:02:01;;;;;;;10.27;6.95;;;24.00;50.90;;;;;;5038931;28;20103;-78
2022/05/11 03:04:26;;;;;;;12.70;7.68;;;24.00;51.40;;;;;;5037959;28;20028;-76
2022/05/11 03:06:52;;;;;;;11.27;7.22;;;24.00;51.10;;;;;;5055150;28;20027;-76
2022/05/11 03:09:18;;;;;;;10.90;6.43;;;24.00;51.10;;;;;;5055687;28;20032;-75
2022/05/11 03:11:45;;;;;;;11.35;7.95;;;24.00;51.00;;;;;;5073273;28;20112;-79
2022/05/11 03:14:11;;;;;;;11.80;7.78;;;24.00;51.30;;;;;;5037434;28;20390;-79
2022/05/11 03:16:38;;;;;;;11.07;7.28;;;24.00;51.80;;;;;;5038752;28;20028;-80
2022/05/11 03:19:05;;;;;;;12.48;7.05;;;24.00;51.80;;;;;;5039173;28;20056;-79
2022/05/11 03:21:31;;;;;;;12.45;7.43;;;24.00;51.40;;;;;;5022644;28;20032;-79
2022/05/11 03:23:57;;;;;;;11.40;6.85;;;23.90;51.20;;;;;;5037344;28;20020;-80
2022/05/11 03:26:23;;;;;;;11.38;6.97;;;23.90;51.40;;;;;;5038550;28;20381;-79
2022/05/11 03:28:49;;;;;;;16.02;6.60;;;23.90;51.40;;;;;;5072711;28;20082;-79
2022/05/11 03:31:15;;;;;;;11.00;7.47;;;23.90;51.80;;;;;;5038410;28;20078;-78
2022/05/11 03:36:26;;;;;;;11.68;6.75;;;23.90;51.40;;;;;;5055393;28;20024;-78
2022/05/11 03:38:52;;;;;;;10.45;6.80;;;24.00;51.80;;;;;;5072125;22;20488;-78
2022/05/11 03:41:18;;;;;;;10.13;6.57;;;24.00;51.40;;;;;;5052724;28;20021;-78
2022/05/11 03:43:44;;;;;;;9.52;6.85;;;24.00;51.10;;;;;;5051072;28;20440;-78
2022/05/11 03:46:10;;;;;;;11.48;7.25;;;24.00;51.10;;;;;;5051256;28;20043;-78
2022/05/11 03:48:37;;;;;;;11.63;6.65;;;24.00;51.40;;;;;;5052714;28;20470;-78
2022/05/11 03:51:04;;;;;;;11.70;6.55;;;24.00;51.30;;;;;;5051142;28;20029;-78
2022/05/11 03:53:31;;;;;;;14.93;7.05;;;24.00;51.40;;;;;;5051579;28;20481;-78
2022/05/11 03:55:56;;;;;;;10.40;6.82;;;24.00;51.20;;;;;;5052294;28;20024;-78
2022/05/11 03:58:22;;;;;;;9.45;6.60;;;24.00;51.70;;;;;;5051891;28;20017;-78
2022/05/11 04:00:57;;;;;;;12.68;7.10;;;23.90;51.30;;;;;;5052452;28;20052;-78
2022/05/11 04:03:23;;;;;;;10.02;6.63;;;24.00;51.90;;;;;;5051276;28;20393;-77
2022/05/11 04:05:49;;;;;;;10.38;6.35;;;24.00;51.70;;;;;;5051701;28;20021;-77
2022/05/11 04:08:14;;;;;;;16.30;6.30;;;24.00;52.40;;;;;;5052218;28;20044;-77
2022/05/11 04:10:40;;;;;;;10.65;6.85;;;24.00;52.30;;;;;;5017511;28;20032;-78
2022/05/11 04:13:06;;;;;;;9.15;6.50;;;24.00;52.00;;;;;;5049133;28;20045;-77
2022/05/11 04:15:32;;;;;;;9.40;6.78;;;24.00;51.60;;;;;;5051382;28;20413;-77
2022/05/11 04:17:58;;;;;;;12.27;6.82;;;24.00;52.00;;;;;;5050472;28;20017;-77
2022/05/11 04:20:24;;;;;;;11.50;6.97;;;24.00;51.70;;;;;;5050179;28;20116;-78
2022/05/11 04:22:50;;;;;;;9.73;6.30;;;23.90;51.80;;;;;;5048339;28;20029;-77
2022/05/11 04:25:17;;;;;;;11.10;6.45;;;24.00;51.50;;;;;;5047782;28;20090;-78
2022/05/11 04:27:47;;;;;;;12.05;6.07;;;24.00;52.30;;;;;;5049902;28;20429;-78
2022/05/11 04:30:14;;;;;;;13.02;6.90;;;24.00;52.40;;;;;;5050171;28;20441;-74
2022/05/11 04:32:40;;;;;;;11.77;6.30;;;24.00;52.50;;;;;;5050275;28;20040;-76
2022/05/11 04:35:07;;;;;;;10.18;5.75;;;24.00;52.00;;;;;;5050508;28;20021;-76
2022/05/11 04:37:33;;;;;;;9.55;6.13;;;24.00;52.30;;;;;;5051165;28;20033;-76
2022/05/11 04:39:59;;;;;;;10.43;5.40;;;23.90;51.90;;;;;;5051374;28;20159;-74
2022/05/11 04:42:25;;;;;;;10.88;5.70;;;23.90;51.90;;;;;;5051502;28;20025;-75
2022/05/11 04:44:53;;;;;;;7.18;5.10;;;23.90;52.00;;;;;;5046569;28;20461;-75
2022/05/11 04:47:19;;;;;;;14.70;5.68;;;23.90;52.00;;;;;;5051395;28;20568;-75
2022/05/11 04:49:45;;;;;;;9.73;5.00;;;23.90;52.00;;;;;;5051093;28;20108;-75
2022/05/11 04:52:16;;;;;;;12.60;5.35;;;23.90;52.00;;;;;;5051401;28;20492;-75
2022/05/11 04:54:45;;;;;;;8.45;4.80;;;23.90;51.90;;;;;;5049528;28;20023;-75
2022/05/11 04:57:11;;;;;;;9.67;4.70;;;23.90;52.10;;;;;;5051246;28;20495;-75
2022/05/11 04:59:40;;;;;;;11.80;4.90;;;23.90;52.10;;;;;;5051204;28;20025;-75
2022/05/11 05:02:07;;;;;;;10.63;5.43;;;23.90;51.80;;;;;;5051242;28;20036;-75
2022/05/11 05:04:33;;;;;;;6.93;4.60;;;23.90;52.00;;;;;;5028738;28;20033;-74
2022/05/11 05:06:59;;;;;;;8.18;5.10;;;23.90;51.90;;;;;;5051048;28;20025;-75
2022/05/11 05:09:25;;;;;;;8.73;4.72;;;23.90;52.10;;;;;;5050686;28;20101;-75
2022/05/11 05:11:52;;;;;;;10.40;4.68;;;23.90;52.10;;;;;;5051067;28;20481;-74
2022/05/11 05:14:17;;;;;;;7.88;4.63;;;23.90;52.00;;;;;;5049709;28;20525;-75
2022/05/11 05:16:43;;;;;;;5.97;4.07;;;23.90;52.40;;;;;;5049595;28;20078;-74
2022/05/11 05:19:09;;;;;;;8.13;4.60;;;23.80;52.40;;;;;;5050815;28;20025;-74
2022/05/11 05:21:35;;;;;;;7.50;4.65;;;23.80;52.20;;;;;;5050667;28;20447;-75
2022/05/11 05:24:01;;;;;;;8.98;4.47;;;23.80;52.20;;;;;;5049580;28;20028;-75
2022/05/11 05:26:27;;;;;;;8.63;5.65;;;23.80;52.80;;;;;;5031272;28;20592;-75
2022/05/11 05:31:37;;;;;;;9.40;5.10;;;23.70;52.50;;;;;;5050328;28;20053;-75
2022/05/11 05:34:03;;;;;;;8.95;5.15;;;23.80;52.30;;;;;;5030060;28;20497;-75
2022/05/11 05:36:31;;;;;;;8.20;4.68;;;23.80;52.40;;;;;;5050771;28;20119;-75
2022/05/11 05:38:58;;;;;;;6.82;4.63;;;23.80;52.20;;;;;;5048099;28;20029;-74
2022/05/11 05:41:25;;;;;;;11.35;5.25;;;23.80;52.20;;;;;;5051027;28;20032;-75
2022/05/11 05:43:52;;;;;;;11.20;5.35;;;23.80;52.50;;;;;;5049335;28;20022;-74
2022/05/11 05:46:19;;;;;;;9.23;4.80;;;23.80;52.20;;;;;;5048531;28;20029;-75
2022/05/11 05:48:45;;;;;;;12.60;5.63;;;23.80;52.30;;;;;;5050116;28;20028;-75
2022/05/11 05:51:13;;;;;;;12.35;6.70;;;23.80;52.40;;;;;;5050853;28;20393;-75
2022/05/11 05:53:40;;;;;;;15.18;6.40;;;23.80;52.50;;;;;;5049407;28;20036;-74
2022/05/11 05:56:07;;;;;;;9.77;5.75;;;23.70;52.30;;;;;;5049338;28;20032;-75
2022/05/11 05:58:33;;;;;;;12.45;5.35;;;23.70;52.50;;;;;;5050084;28;20493;-75
2022/05/11 06:00:59;;;;;;;12.25;5.68;;;23.70;52.30;;;;;;5050725;28;20025;-76
2022/05/11 06:03:31;;;;;;;10.77;5.43;;;23.70;52.60;;;;;;5049029;28;20036;-75
2022/05/11 06:05:56;;;;;;;12.13;5.65;;;23.70;52.80;;;;;;5050724;28;20028;-74
2022/05/11 06:08:23;;;;;;;10.30;5.43;;;23.70;52.80;;;;;;5050396;28;20017;-74
2022/05/11 06:10:51;;;;;;;8.05;4.93;;;23.70;52.80;;;;;;5050289;28;20110;-75
2022/05/11 06:13:22;;;;;;;11.07;5.38;;;23.70;52.80;;;;;;5047860;28;20040;-75
2022/05/11 06:15:53;;;;;;;12.45;5.22;;;23.70;52.90;;;;;;5045215;28;20035;-74
2022/05/11 06:18:20;;;;;;;10.55;5.20;;;23.60;52.90;;;;;;5044737;28;20108;-75
2022/05/11 06:20:51;;;;;;;13.88;6.95;;;23.70;52.90;;;;;;5049215;28;20042;-76
2022/05/11 06:23:21;;;;;;;12.52;6.75;;;23.60;53.30;;;;;;5048913;28;20021;-75
2022/05/11 06:25:49;;;;;;;;;;;23.70;53.50;;;;;;5048989;28;20485;-75
2022/05/11 06:28:15;;;;;;;13.95;8.23;;;23.60;53.50;;;;;;5048902;28;19912;-76
2022/05/11 06:30:41;;;;;;;15.98;7.82;;;23.60;53.50;;;;;;5050597;28;20031;-75
2022/05/11 06:33:07;;;;;;;13.00;6.97;;;23.70;53.70;;;;;;5048081;28;20388;-74
2022/05/11 06:35:33;;;;;;;15.45;8.40;;;23.70;53.70;;;;;;5048779;28;20021;-74
2022/05/11 06:38:04;;;;;;;10.93;6.88;;;23.60;53.80;;;;;;5050300;28;20477;-74
2022/05/11 06:40:30;;;;;;;10.90;6.97;;;23.70;53.70;;;;;;5050241;28;20108;-74
2022/05/11 06:42:56;;;;;;;12.60;6.43;;;23.70;53.60;;;;;;5048591;28;20108;-74
2022/05/11 06:45:23;;;;;;;12.13;6.85;;;23.60;54.00;;;;;;5050327;28;20033;-74
2022/05/11 06:47:49;;;;;;;14.25;6.70;;;23.70;53.90;;;;;;5049331;28;20041;-75
2022/05/11 06:50:16;;;;;;;14.07;6.63;;;23.70;53.50;;;;;;5050632;28;20068;-74
2022/05/11 06:52:41;;;;;;;12.63;6.75;;;23.70;53.50;;;;;;5053259;28;20021;-74
2022/05/11 07:00:36;;;;;;;13.38;6.40;;;23.60;54.10;;;;;;5051806;28;20497;-75
2022/05/11 07:03:05;;;;;;;9.57;5.70;;;23.60;53.90;;;;;;5052732;28;20048;-75
2022/05/11 07:05:32;;;;;;;12.45;5.82;;;23.60;54.20;;;;;;5053624;28;20053;-75
2022/05/11 07:07:58;;;;;;;10.45;6.07;;;23.60;54.10;;;;;;5053131;28;20032;-76
2022/05/11 07:10:24;;;;;;;11.27;6.10;;;23.60;53.90;;;;;;5051459;28;20116;-76
2022/05/11 07:12:50;;;;;;;11.20;6.30;;;23.60;54.00;;;;;;5051742;28;20039;-76
2022/05/11 07:15:19;;;;;;;13.32;6.55;;;23.60;54.20;;;;;;5045487;28;20406;-75
2022/05/11 07:17:57;;;;;;;14.23;5.72;;;23.60;54.10;;;;;;5061133;28;20096;-75
2022/05/11 07:20:30;;;;;;;14.15;5.47;;;23.70;54.60;;;;;;5053639;28;20025;-75
2022/05/11 07:22:56;;;;;;;16.00;5.80;;;23.70;54.60;;;;;;5058388;28;20024;-78
2022/05/11 07:25:24;;;;;;;19.40;6.32;;;23.60;54.70;;;;;;5052361;28;20397;-80
2022/05/11 07:27:54;;;;;;;12.82;5.78;;;23.60;54.40;;;;;;5053590;28;20401;-78
2022/05/11 07:30:23;;;;;;;20.10;6.07;;;23.70;54.70;;;;;;5053211;28;20074;-79
2022/05/11 07:32:49;;;;;;;22.02;6.10;;;23.70;54.70;;;;;;5052152;28;20478;-78
2022/05/11 07:35:15;;;;;;;21.45;5.72;;;23.80;54.70;;;;;;5051105;28;20032;-73
2022/05/11 07:37:41;;;;;;;13.15;5.65;;;23.80;54.70;;;;;;5052934;28;20603;-73
2022/05/11 07:40:08;;;;;;;13.70;5.25;;;23.70;54.10;;;;;;5053365;28;20119;-72
2022/05/11 07:42:34;;;;;;;10.18;5.07;;;23.60;54.00;;;;;;5052882;28;20501;-73
2022/05/11 07:45:00;;;;;;;15.80;5.10;;;23.50;53.90;;;;;;5051762;28;20024;-73
2022/05/11 07:47:26;;;;;;;19.20;6.43;;;23.60;54.00;;;;;;5052800;28;20378;-73
2022/05/11 07:49:52;;;;;;;13.25;5.15;;;23.60;54.00;;;;;;5052422;28;20025;-73
2022/05/11 07:52:18;;;;;;;14.75;5.72;;;23.70;53.90;;;;;;5052074;28;20033;-73
2022/05/11 07:54:44;;;;;;;13.25;5.43;;;23.70;53.30;;;;;;5051780;28;20045;-72
2022/05/11 08:00:02;;;;;;;10.50;4.88;;;23.80;53.40;;;;;;5045855;28;20104;-72
2022/05/11 08:02:32;;;;;;;8.43;4.05;;;23.80;53.20;;;;;;5052662;28;20398;-73
2022/05/11 08:05:00;;;;;;;10.77;4.45;;;23.70;52.50;;;;;;5052388;28;20048;-73
2022/05/11 08:07:29;;;;;;;10.63;4.05;;;23.70;52.60;;;;;;5051663;28;20511;-73
2022/05/11 08:09:59;;;;;;;10.73;4.00;;;23.70;52.60;;;;;;5052621;28;20021;-72
2022/05/11 08:12:25;;;;;;;11.35;4.38;;;23.60;53.30;;;;;;5052207;28;20017;-72
2022/05/11 08:14:52;;;;;;;7.82;3.67;;;23.70;54.10;;;;;;5052183;28;20108;-72
2022/05/11 08:17:26;;;;;;;8.60;4.20;;;23.70;53.20;;;;;;5051405;28;20100;-72
2022/05/11 08:19:52;;;;;;;11.80;4.20;;;23.70;53.30;;;;;;5045070;28;20083;-72
2022/05/11 08:22:18;;;;;;;9.35;3.80;;;23.70;53.20;;;;;;5052362;28;20489;-72
2022/05/11 08:24:45;;;;;;;10.68;3.85;;;23.70;52.60;;;;;;5051853;28;20112;-75
2022/05/11 08:27:11;;;;;;;16.05;5.20;;;23.70;52.90;;;;;;5051584;28;20029;-75
2022/05/11 08:35:06;;;;;;;9.80;3.67;;;23.80;52.90;;;;;;5050945;28;20106;-75
2022/05/11 08:37:33;;;;;;;12.30;3.95;;;23.80;53.00;;;;;;5050647;28;20044;-76
2022/05/11 08:39:59;;;;;;;15.75;3.88;;;23.80;53.00;;;;;;5052154;28;20500;-75
2022/05/11 08:42:32;;;;;;;8.68;3.92;;;23.80;53.70;;;;;;5052173;28;20071;-75
2022/05/11 08:45:01;;;;;;;9.98;3.90;;;23.80;54.00;;;;;;5051659;28;20035;-75
2022/05/11 08:47:43;;;;;;;10.45;3.35;;;23.90;54.20;;;;;;5016999;28;20481;-75
2022/05/11 08:50:16;;;;;;;7.72;3.88;;;23.90;54.30;;;;;;5050768;28;20056;-74
2022/05/11 08:53:03;;;;;;;6.85;3.67;;;23.90;54.40;;;;;;5050412;28;20033;-74
2022/05/11 08:55:44;;;;;;;7.13;3.60;;;23.90;54.30;;;;;;5050943;28;20083;-74
2022/05/11 08:58:24;;;;;;;8.43;3.47;;;23.90;54.60;;;;;;5046009;28;20048;-74
2022/05/11 09:00:52;;;;;;;;;;;23.90;54.80;;;;;;5014292;28;20033;-75
2022/05/11 09:03:34;;;;;;;9.68;3.58;;;23.90;54.80;;;;;;5031320;28;20365;-74
2022/05/11 09:06:06;;;;;;;6.93;3.65;;;23.90;54.90;;;;;;5033827;28;20517;-74
2022/05/11 09:08:37;;;;;;;8.70;3.42;;;23.80;54.80;;;;;;5091472;22;20404;-75
2022/05/11 09:11:05;;;;;;;6.63;3.35;;;23.90;54.90;;;;;;5071741;28;20028;-75
2022/05/11 09:13:31;;;;;;;9.38;3.42;;;23.90;54.80;;;;;;5069965;28;20040;-75
2022/05/11 09:16:00;;;;;;;8.68;3.60;;;23.90;54.80;;;;;;5073476;28;20562;-75
2022/05/11 09:18:39;;;;;;;9.83;3.73;;;23.90;54.90;;;;;;5070507;28;20472;-75
2022/05/11 09:21:32;;;;;;;8.98;3.65;;;23.90;54.90;;;;;;5056721;28;20017;-74
2022/05/11 09:24:08;;;;;;;6.25;3.55;;;23.90;54.80;;;;;;5049583;28;20036;-74
2022/05/11 09:26:37;;;;;;;9.93;3.70;;;23.90;54.80;;;;;;5057945;28;20054;-74
2022/05/11 09:29:19;;;;;;;7.65;3.58;;;23.90;54.70;;;;;;5059335;28;20104;-74
2022/05/11 09:31:46;;;;;;;5.78;3.30;;;23.90;54.80;;;;;;5050217;28;20556;-75
2022/05/11 09:34:23;;;;;;;6.80;3.60;;;23.90;54.80;;;;;;5051088;28;20029;-74
2022/05/11 09:36:58;;;;;;;5.70;3.25;;;23.90;54.80;;;;;;5078730;28;20099;-74
2022/05/11 09:39:27;;;;;;;5.40;3.17;;;23.90;54.70;;;;;;5069234;22;20605;-81
2022/05/11 09:42:11;;;;;;;6.28;3.20;;;23.90;55.00;;;;;;5009001;28;20029;-81
2022/05/11 09:44:43;;;;;;;5.95;3.00;;;23.90;54.80;;;;;;5051829;28;20025;-82
2022/05/11 09:47:31;;;;;;;8.82;3.63;;;23.90;54.80;;;;;;5043760;28;20021;-81
2022/05/11 09:50:20;;;;;;;7.18;3.35;;;23.90;54.80;;;;;;5035272;28;20035;-79
2022/05/11 09:52:47;;;;;;;7.07;3.28;;;23.90;54.70;;;;;;5069153;28;20035;-81
2022/05/11 09:55:23;;;;;;;4.65;3.20;;;23.90;54.70;;;;;;5048862;28;20036;-82
2022/05/11 09:57:56;;;;;;;6.32;3.35;;;23.90;54.50;;;;;;5053853;28;20427;-81
2022/05/11 10:00:34;;;;;;;7.72;3.60;;;23.90;54.40;;;;;;5069570;28;20396;-81
2022/05/11 10:03:08;;;;;;;6.25;3.10;;;24.00;54.30;;;;;;5046234;28;20055;-81
2022/05/11 10:05:47;;;;;;;5.75;3.20;;;24.00;54.10;;;;;;5041550;28;20374;-80
2022/05/11 10:08:33;;;;;;;5.97;3.20;;;23.90;54.00;;;;;;5069490;28;20037;-80
2022/05/11 10:11:50;;;;;;;6.50;3.13;;;24.00;54.00;;;;;;5051334;28;20106;-81
2022/05/11 10:22:57;;;;;;;6.03;3.20;;;24.00;53.80;;;;;;5033520;28;20100;-81
2022/05/11 10:25:28;;;;;;;5.05;3.25;;;24.00;54.00;;;;;;5043955;28;20407;-81
2022/05/11 10:28:01;;;;;;;5.53;2.97;;;24.00;54.10;;;;;;5048162;28;20020;-80
2022/05/11 10:30:43;;;;;;;5.75;3.10;;;24.00;53.70;;;;;;5056126;28;20040;-81
2022/05/11 10:33:40;;;;;;;6.78;3.08;;;24.00;53.90;;;;;;5067526;28;20025;-80
2022/05/11 10:36:20;;;;;;;6.50;3.40;;;24.00;54.00;;;;;;5055501;28;20029;-80
2022/05/11 10:38:52;;;;;;;9.10;3.33;;;24.00;54.00;;;;;;5059999;28;20052;-81
2022/05/11 10:41:46;;;;;;;4.95;3.08;;;24.00;54.50;;;;;;5050922;28;20481;-82
2022/05/11 10:44:39;;;;;;;10.85;3.75;;;24.00;54.40;;;;;;5064837;28;20036;-81
2022/05/11 10:47:26;;;;;;;8.32;3.10;;;24.00;54.40;;;;;;5060764;28;20040;-81
2022/05/11 10:50:34;;;;;;;6.00;2.88;;;24.00;54.60;;;;;;5021575;28;20040;-81
2022/05/11 10:53:04;;;;;;;5.93;3.20;;;24.00;54.70;;;;;;5001227;28;21104;-80
2022/05/11 10:56:03;;;;;;;7.65;3.40;;;24.00;54.90;;;;;;5054394;28;20033;-80
2022/05/11 10:59:02;;;;;;;5.85;3.15;;;24.00;54.90;;;;;;5052737;28;20065;-79
2022/05/11 11:01:47;;;;;;;7.95;3.10;;;24.00;55.00;;;;;;5051615;28;20029;-80
2022/05/11 11:04:32;;;;;;;6.32;3.17;;;24.00;55.10;;;;;;5058085;28;20042;-80
2022/05/11 11:07:11;;;;;;;6.75;3.10;;;24.00;55.10;;;;;;4985102;28;20429;-80
2022/05/11 11:09:43;;;;;;;10.75;3.55;;;24.00;55.20;;;;;;5014709;28;20029;-80
2022/05/11 11:12:48;;;;;;;6.15;3.13;;;24.00;55.10;;;;;;5012440;28;20534;-80
2022/05/11 11:15:16;;;;;;;9.35;3.20;;;24.00;55.10;;;;;;5044922;28;20032;-80
2022/05/11 11:17:44;;;;;;;10.57;3.40;;;24.10;55.20;;;;;;5050428;28;20033;-80
2022/05/11 11:20:12;;;;;;;6.40;3.10;;;24.00;55.10;;;;;;5036619;28;20039;-80
2022/05/11 11:23:00;;;;;;;8.43;3.30;;;24.10;55.10;;;;;;5052328;28;20034;-79
2022/05/11 11:25:26;;;;;;;5.90;3.00;;;24.00;55.20;;;;;;5072114;28;20024;-80
2022/05/11 11:28:15;;;;;;;6.78;3.05;;;24.00;55.20;;;;;;5034915;28;20101;-82
2022/05/11 11:30:59;;;;;;;6.72;2.88;;;24.10;54.60;;;;;;5026310;28;20074;-84
2022/05/11 11:33:33;;;;;;;7.70;3.00;;;24.10;55.00;;;;;;5021640;28;20033;-83
2022/05/11 11:36:00;;;;;;;6.32;3.28;;;24.10;55.10;;;;;;5031648;28;20025;-83
2022/05/11 11:38:41;;;;;;;6.30;2.97;;;24.10;55.10;;;;;;5035291;28;20060;-83
2022/05/11 11:41:18;;;;;;;7.38;2.95;;;24.00;55.00;;;;;;5037853;28;20075;-83
2022/05/11 11:43:59;;;;;;;6.80;2.95;;;24.00;54.80;;;;;;5032119;28;20083;-83
2022/05/11 11:46:36;;;;;;;6.72;3.13;;;24.00;54.90;;;;;;5030844;28;20025;-83
2022/05/11 11:49:19;;;;;;;5.38;2.75;;;24.10;54.90;;;;;;5022558;28;20025;-82
2022/05/11 11:51:53;;;;;;;11.23;2.95;;;24.00;54.70;;;;;;5028055;28;20024;-82
2022/05/11 11:54:37;;;;;;;6.57;2.72;;;24.10;54.90;;;;;;5048835;28;20025;-82
2022/05/11 11:57:19;;;;;;;10.43;3.28;;;24.10;54.80;;;;;;5031080;28;20475;-82
2022/05/11 11:59:48;;;;;;;10.82;3.53;;;24.10;54.80;;;;;;5005662;28;20030;-81
2022/05/11 12:02:30;;;;;;;6.82;2.95;;;24.10;55.00;;;;;;5039819;28;20029;-82
2022/05/11 12:05:27;;;;;;;6.38;3.17;;;24.00;55.10;;;;;;4998819;28;20040;-83
2022/05/11 12:16:54;;;;;;;7.82;3.13;;;24.10;55.10;;;;;;5012876;28;20081;-84
2022/05/11 12:19:23;;;;;;;6.93;3.10;;;24.10;55.10;;;;;;5051258;28;20016;-84
2022/05/11 12:22:04;;;;;;;6.47;3.03;;;24.10;55.20;;;;;;5020968;28;20170;-76
2022/05/11 12:24:36;;;;;;;8.07;3.33;;;24.10;54.90;;;;;;5067793;28;20029;-78
2022/05/11 12:27:12;;;;;;;10.90;5.00;;;24.10;54.50;;;;;;5071198;28;20111;-82
2022/05/11 12:29:55;;;;;;;15.45;7.07;;;24.10;53.60;;;;;;5057275;28;20028;-83
2022/05/11 12:32:23;;;;;;;12.38;5.15;;;24.10;52.70;;;;;;5044100;28;20027;-85
2022/05/11 12:34:49;;;;;;;15.73;5.68;;;24.20;54.10;;;;;;5052442;28;20469;-83
2022/05/11 12:37:30;;;;;;;19.50;5.32;;;24.10;53.50;;;;;;5052151;28;20048;-83
2022/05/11 12:40:03;;;;;;;11.52;5.35;;;24.10;53.80;;;;;;5043982;28;20025;-83
2022/05/11 12:42:33;;;;;;;11.90;5.90;;;24.10;53.80;;;;;;5049194;28;20043;-81
2022/05/11 12:45:01;;;;;;;12.88;5.57;;;24.10;54.00;;;;;;5053559;28;20507;-82
2022/05/11 12:47:28;;;;;;;23.50;5.57;;;24.10;53.90;;;;;;5070848;28;20063;-82
2022/05/11 12:49:54;;;;;;;15.25;5.50;;;24.10;54.10;;;;;;5041150;28;20038;-82
2022/05/11 12:52:23;;;;;;;16.48;6.15;;;24.10;54.20;;;;;;5027590;28;20366;-82
2022/05/11 12:55:03;;;;;;;18.42;5.13;;;24.10;54.20;;;;;;5070622;28;20052;-82
2022/05/11 12:57:44;;;;;;;16.08;5.88;;;24.10;54.10;;;;;;5053626;28;20056;-82
2022/05/11 13:00:14;;;;;;;15.52;6.00;;;24.10;54.10;;;;;;5062030;28;20017;-83
2022/05/11 13:02:42;;;;;;;17.42;5.22;;;24.10;54.10;;;;;;5069862;28;20366;-83
2022/05/11 13:05:12;;;;;;;12.63;5.30;;;24.10;54.10;;;;;;5052239;28;20491;-83
2022/05/11 13:07:50;;;;;;;16.23;5.55;;;24.10;54.20;;;;;;5070483;28;20103;-83
2022/05/11 13:10:27;;;;;;;14.77;5.55;;;24.10;54.10;;;;;;5042570;28;20025;-82
2022/05/11 13:12:56;;;;;;;16.38;5.60;;;24.10;54.20;;;;;;5029676;28;20033;-82
2022/05/11 13:15:40;;;;;;;12.68;5.07;;;24.10;54.10;;;;;;5012931;28;20585;-82
2022/05/11 13:18:13;;;;;;;14.30;5.53;;;24.10;54.20;;;;;;5030664;28;20121;-82
2022/05/11 13:20:42;;;;;;;14.60;5.55;;;24.10;54.20;;;;;;5064201;28;20024;-82
2022/05/11 13:23:24;;;;;;;11.32;5.90;;;24.10;54.20;;;;;;5029304;28;20542;-83
2022/05/11 13:25:53;;;;;;;11.85;4.95;;;24.10;54.20;;;;;;5051927;28;20492;-82
2022/05/11 13:28:24;;;;;;;12.23;5.17;;;24.10;54.20;;;;;;5049653;28;20028;-83
2022/05/11 13:30:53;;;;;;;14.07;5.47;;;24.10;54.20;;;;;;5032950;28;20094;-83
2022/05/11 13:33:45;;;;;;;14.45;5.35;;;24.10;54.20;;;;;;5031253;28;20060;-82
2022/05/11 13:36:11;;;;;;;10.60;5.00;;;24.10;54.20;;;;;;5046405;28;20495;-83
2022/05/11 13:38:47;;;;;;;11.65;5.45;;;24.10;54.20;;;;;;5033070;28;20119;-82
2022/05/11 13:41:16;;;;;;;14.05;5.15;;;24.10;54.30;;;;;;5043553;28;20052;-83
2022/05/11 13:43:53;;;;;;;12.45;5.50;;;24.10;54.30;;;;;;5035380;28;20127;-83
2022/05/11 13:48:11;;;;;;;10.38;4.90;;;24.10;54.40;;;;;;5051930;28;20094;-83